ESOW/VST METAR and TAF weather

Enter ICAO airport designator
Station Type Date Time Source
ESOW METAR 2020/12/06 01:50 UTC NOAA

ESOW 060150Z AUTO 14006KT 6000 BR FEW014/// SCT022/// BKN037/// 07/06 Q1009


Station Type Date Time Source
ESOW Decoded METAR 2020/12/06 01:50 UTC NOAA

Vasteras / Hasslo, Sweden (ESOW) 59-35N 016-38E 31M
Dec 05, 2020 - 08:50 PM EST / 2020.12.06 0150 UTC
Wind: from the SE (140 degrees) at 7 MPH (6 KT):0
Visibility: 3 mile(s):0
Sky conditions: mostly cloudy
Weather: mist
Temperature: 44 F (7 C)
Dew Point: 42 F (6 C)
Relative Humidity: 93%
Pressure (altimeter): 29.80 in. Hg (1009 hPa)
ob: ESOW 060150Z AUTO 14006KT 6000 BR FEW014/// SCT022/// BKN037/// 07/06 Q1009
cycle: 2

Station Type Date Time Source
ESOW TAF 2018/11/18 12:33 UTC NOAA

TAF ESOW 181130Z 1812/1914 02015KT 9999 BKN020
TEMPO 1812/1814 02015G25KT

Example: see airport list